Time;durP1;ratioP1;P1;durP2;ratioP2;P2;SDS_P1;SDS_P2;PMS_P1;PMS_P2;Temp;Humidity;BMP_temperature;BMP_pressure;BME280_temperature;BME280_humidity;BME280_pressure;Samples;Min_cycle;Max_cycle;Signal;HPM_P1;HPM_P2
2022/10/31 00:00:51;;;;;;;8.70;4.67;;;;;;;15.31;100.00;101826.19;2073281;28;20479;-60
2022/10/31 00:01:52;;;;;;;10.23;5.20;;;;;;;15.19;100.00;101807.34;2072698;28;20319;-61
2022/10/31 00:02:52;;;;;;;9.67;4.53;;;;;;;15.28;100.00;101815.91;2072361;28;20243;-61
2022/10/31 00:03:53;;;;;;;10.47;5.00;;;;;;;15.11;100.00;101796.78;2073157;28;20657;-61
2022/10/31 00:04:54;;;;;;;9.93;4.77;;;;;;;14.75;100.00;101741.00;2072980;28;20181;-61
2022/10/31 00:05:54;;;;;;;9.50;5.13;;;;;;;15.18;100.00;101802.97;2072891;28;20203;-61
2022/10/31 00:06:54;;;;;;;9.33;4.47;;;;;;;15.30;100.00;101823.81;2073320;28;20189;-61
2022/10/31 00:07:55;;;;;;;8.40;4.67;;;;;;;15.28;100.00;101810.31;2071864;28;20265;-61
2022/10/31 00:08:57;;;;;;;7.73;4.67;;;;;;;15.35;100.00;101814.94;2072348;28;20321;-61
2022/10/31 00:09:58;;;;;;;8.63;4.47;;;;;;;15.36;100.00;101810.97;2068589;28;20230;-61
2022/10/31 00:10:58;;;;;;;9.03;5.07;;;;;;;15.47;100.00;101820.63;2073065;28;20452;-61
2022/10/31 00:11:59;;;;;;;9.73;4.70;;;;;;;15.48;100.00;101813.81;2071835;28;20255;-62
2022/10/31 00:12:59;;;;;;;8.80;4.77;;;;;;;15.52;100.00;101814.50;2069354;28;20193;-61
2022/10/31 00:14:00;;;;;;;10.00;4.73;;;;;;;15.54;100.00;101812.09;2069875;28;20201;-62
2022/10/31 00:15:00;;;;;;;10.73;5.33;;;;;;;15.54;100.00;101820.47;2072022;28;20191;-61
2022/10/31 00:16:01;;;;;;;8.77;4.80;;;;;;;15.60;100.00;101815.91;2072249;28;20209;-61
2022/10/31 00:17:02;;;;;;;9.47;4.73;;;;;;;15.63;100.00;101817.81;2068529;28;20221;-61
2022/10/31 00:18:03;;;;;;;8.40;4.57;;;;;;;15.59;100.00;101805.97;2072567;28;20204;-62
2022/10/31 00:19:07;;;;;;;9.90;4.73;;;;;;;15.65;100.00;101820.19;2072875;28;20437;-61
2022/10/31 00:20:08;;;;;;;7.77;4.57;;;;;;;15.60;100.00;101807.53;2066615;28;20498;-61
2022/10/31 00:21:09;;;;;;;9.43;5.03;;;;;;;15.69;100.00;101824.47;2068712;28;20452;-60
2022/10/31 00:22:09;;;;;;;7.13;4.53;;;;;;;15.72;100.00;101820.03;2071037;28;20537;-60
2022/10/31 00:23:10;;;;;;;7.27;4.80;;;;;;;15.73;100.00;101821.59;2072657;28;20211;-61
2022/10/31 00:24:11;;;;;;;8.07;5.13;;;;;;;15.76;100.00;101821.47;2071962;28;20184;-61
2022/10/31 00:25:11;;;;;;;8.63;5.10;;;;;;;15.78;100.00;101821.81;2064924;28;20421;-61
2022/10/31 00:26:12;;;;;;;8.70;4.57;;;;;;;15.35;100.00;101761.88;2072791;28;20227;-61
2022/10/31 00:27:12;;;;;;;9.03;4.70;;;;;;;15.86;100.00;101830.81;2073022;28;20271;-61
2022/10/31 00:28:13;;;;;;;12.10;5.43;;;;;;;15.86;100.00;101833.59;2072588;28;20567;-61
2022/10/31 00:29:13;;;;;;;10.47;4.73;;;;;;;15.90;100.00;101829.50;2071229;28;20221;-61
2022/10/31 00:30:14;;;;;;;9.50;4.53;;;;;;;15.89;100.00;101825.13;2069676;28;20197;-61
2022/10/31 00:31:14;;;;;;;7.87;4.70;;;;;;;15.92;100.00;101821.44;2065144;28;20542;-61
2022/10/31 00:32:15;;;;;;;9.53;5.30;;;;;;;15.65;100.00;101772.69;2070214;28;20582;-61
2022/10/31 00:33:15;;;;;;;6.77;4.87;;;;;;;15.78;100.00;101796.66;2073207;28;20678;-61
2022/10/31 00:34:16;;;;;;;11.83;4.60;;;;;;;15.69;100.00;101778.97;2072892;28;20210;-60
2022/10/31 00:35:16;;;;;;;9.40;5.30;;;;;;;15.97;100.00;101823.72;2073049;28;20189;-61
2022/10/31 00:36:18;;;;;;;7.97;5.00;;;;;;;15.98;100.00;101822.47;2073088;28;20667;-61
2022/10/31 00:37:19;;;;;;;8.17;4.63;;;;;;;15.98;100.00;101830.88;2070814;28;20262;-61
2022/10/31 00:38:19;;;;;;;9.30;4.93;;;;;;;15.96;100.00;101835.34;2072495;28;20430;-61
2022/10/31 00:39:20;;;;;;;8.17;5.00;;;;;;;15.98;100.00;101833.66;2071177;28;20267;-61
2022/10/31 00:40:20;;;;;;;10.67;5.30;;;;;;;15.99;100.00;101837.25;2073167;28;20558;-61
2022/10/31 00:41:21;;;;;;;10.70;5.23;;;;;;;16.00;100.00;101838.81;2073083;28;20188;-62
2022/10/31 00:42:21;;;;;;;8.70;5.10;;;;;;;15.52;100.00;101778.19;2071408;28;20250;-61
2022/10/31 00:43:21;;;;;;;9.77;4.83;;;;;;;15.99;100.00;101826.84;2067346;28;20194;-61
2022/10/31 00:44:22;;;;;;;14.03;5.87;;;;;;;15.98;100.00;101833.66;2069214;28;20581;-61
2022/10/31 00:45:22;;;;;;;9.17;4.97;;;;;;;16.00;100.00;101819.25;2065941;28;20609;-61
2022/10/31 00:46:23;;;;;;;11.47;5.27;;;;;;;15.95;100.00;101808.59;2070680;28;20178;-61
2022/10/31 00:47:23;;;;;;;9.83;5.20;;;;;;;15.98;100.00;101827.31;2069198;28;20251;-61
2022/10/31 00:48:24;;;;;;;8.50;5.40;;;;;;;16.01;100.00;101820.81;2068389;28;20216;-61
2022/10/31 00:49:24;;;;;;;7.80;5.00;;;;;;;16.02;100.00;101820.38;2072557;28;20236;-61
2022/10/31 00:50:25;;;;;;;8.13;5.00;;;;;;;16.00;100.00;101811.66;2072850;28;20677;-61
2022/10/31 00:51:26;;;;;;;8.57;5.37;;;;;;;15.96;100.00;101821.34;2067631;28;20194;-62
2022/10/31 00:52:26;;;;;;;8.93;5.10;;;;;;;15.95;100.00;101826.19;2071364;28;20681;-61
2022/10/31 00:53:27;;;;;;;11.80;5.73;;;;;;;15.95;100.00;101826.19;2072690;28;20201;-61
2022/10/31 00:54:27;;;;;;;8.83;5.30;;;;;;;15.92;100.00;101820.66;2072541;28;20594;-61
2022/10/31 00:55:28;;;;;;;9.27;5.50;;;;;;;15.90;100.00;101809.94;2071034;28;20678;-61
2022/10/31 00:56:28;;;;;;;8.33;5.00;;;;;;;15.94;100.00;101815.44;2070638;28;20221;-61
2022/10/31 00:57:29;;;;;;;8.93;5.23;;;;;;;15.90;100.00;101817.53;2073126;28;20226;-61
2022/10/31 00:58:29;;;;;;;8.87;5.23;;;;;;;15.92;100.00;101817.84;2072876;28;20246;-62
2022/10/31 00:59:30;;;;;;;13.23;5.67;;;;;;;15.90;100.00;101826.72;2068199;28;20221;-61
2022/10/31 01:00:30;;;;;;;6.00;4.50;;;;;;;15.93;100.00;101831.41;2068417;28;20660;-61
2022/10/31 01:01:31;;;;;;;8.60;5.80;;;;;;;15.86;100.00;101830.81;2070436;28;20194;-61
2022/10/31 01:02:31;;;;;;;10.23;5.07;;;;;;;15.88;100.00;101820.00;2072927;28;20273;-61
2022/10/31 01:03:33;;;;;;;10.70;5.77;;;;;;;15.84;100.00;101822.84;2072937;28;20667;-61
2022/10/31 01:04:34;;;;;;;10.70;5.57;;;;;;;15.78;100.00;101819.03;2071824;28;20244;-61
2022/10/31 01:05:34;;;;;;;10.03;5.10;;;;;;;15.77;100.00;101819.50;2072329;28;21008;-61
2022/10/31 01:06:34;;;;;;;8.50;5.73;;;;;;;15.73;100.00;101822.34;2072199;28;20189;-61
2022/10/31 01:07:37;;;;;;;11.00;5.93;;;;;;;15.71;100.00;101815.63;2072871;28;20197;-61
2022/10/31 01:08:38;;;;;;;10.73;5.53;;;;;;;15.70;100.00;101817.66;2069711;28;20188;-61
2022/10/31 01:09:38;;;;;;;8.73;5.27;;;;;;;15.72;100.00;101820.78;2068899;28;20967;-61
2022/10/31 01:10:39;;;;;;;13.87;6.37;;;;;;;15.78;100.00;101815.47;2072949;28;20813;-61
2022/10/31 01:11:39;;;;;;;8.87;6.10;;;;;;;15.79;100.00;101819.81;2073171;28;20206;-61
2022/10/31 01:12:42;;;;;;;11.13;6.00;;;;;;;15.79;100.00;101815.00;2072478;28;20193;-61
2022/10/31 01:13:44;;;;;;;10.37;6.00;;;;;;;15.79;100.00;101831.00;2072566;28;20193;-61
2022/10/31 01:14:45;;;;;;;9.17;5.40;;;;;;;15.25;100.00;101768.50;2072222;28;20973;-61
2022/10/31 01:15:53;;;;;;;12.93;6.27;;;;;;;15.70;100.00;101828.84;2070875;28;20429;-61
2022/10/31 01:16:53;;;;;;;10.43;5.83;;;;;;;15.74;100.00;101834.31;2068702;28;20450;-61
2022/10/31 01:17:53;;;;;;;8.40;5.60;;;;;;;15.70;100.00;101833.63;2072905;28;20430;-61
2022/10/31 01:18:54;;;;;;;10.17;5.53;;;;;;;15.76;100.00;101829.06;2072645;28;20308;-61
2022/10/31 01:19:54;;;;;;;10.10;5.63;;;;;;;15.74;100.00;101820.34;2072617;28;20184;-62
2022/10/31 01:21:06;;;;;;;10.90;6.20;;;;;;;15.73;100.00;101825.16;2073118;28;20270;-62
2022/10/31 01:22:07;;;;;;;8.13;5.83;;;;;;;15.73;100.00;101827.16;2067536;28;20178;-61
2022/10/31 01:23:07;;;;;;;12.03;6.20;;;;;;;15.72;100.00;101826.38;2072330;28;20467;-61
2022/10/31 01:24:08;;;;;;;10.63;5.50;;;;;;;15.66;100.00;101818.94;2070332;28;20189;-61
2022/10/31 01:25:10;;;;;;;10.03;6.13;;;;;;;15.69;100.00;101823.69;2072433;28;20196;-61
2022/10/31 01:26:13;;;;;;;15.77;6.40;;;;;;;15.69;100.00;101830.06;2072640;28;20582;-61
2022/10/31 01:27:13;;;;;;;11.93;6.20;;;;;;;15.68;100.00;101827.69;2072814;28;20448;-61
2022/10/31 01:28:14;;;;;;;14.57;6.10;;;;;;;15.22;100.00;101753.41;2072722;28;20442;-62
2022/10/31 01:29:14;;;;;;;12.90;6.23;;;;;;;15.67;100.00;101828.94;2072651;28;20185;-61
2022/10/31 01:30:15;;;;;;;15.20;5.83;;;;;;;15.64;100.00;101827.78;2072646;28;20235;-61
2022/10/31 01:31:17;;;;;;;17.13;6.67;;;;;;;15.63;100.00;101829.00;2073014;28;20182;-61
2022/10/31 01:32:18;;;;;;;23.23;6.50;;;;;;;15.59;100.00;101821.94;2072534;28;20694;-61
2022/10/31 01:33:18;;;;;;;17.10;6.40;;;;;;;15.62;100.00;101827.44;2066029;28;20463;-62
2022/10/31 01:34:18;;;;;;;12.60;6.00;;;;;;;15.60;100.00;101829.88;2069799;28;20638;-61
2022/10/31 01:35:19;;;;;;;11.43;6.10;;;;;;;15.59;100.00;101828.31;2068723;28;20241;-61
2022/10/31 01:36:22;;;;;;;10.97;6.40;;;;;;;15.42;100.00;101818.34;2069949;28;20189;-61
2022/10/31 01:37:22;;;;;;;10.53;5.73;;;;;;;15.08;100.00;101762.16;2072605;28;20204;-62
2022/10/31 01:38:23;;;;;;;11.43;6.00;;;;;;;14.90;100.00;101730.31;2072632;28;20441;-62
2022/10/31 01:39:24;;;;;;;11.93;6.13;;;;;;;15.53;100.00;101841.22;2073045;28;20556;-61
2022/10/31 01:40:29;;;;;;;19.03;7.20;;;;;;;15.48;100.00;101836.16;2066318;28;20679;-61
2022/10/31 01:41:32;;;;;;;16.87;6.17;;;;;;;15.38;100.00;101825.25;2065087;28;20202;-62
2022/10/31 01:42:32;;;;;;;11.97;6.17;;;;;;;15.40;100.00;101839.56;2078624;28;20443;-61
2022/10/31 01:44:22;;;;;;;11.43;6.07;;;;;;;15.38;100.00;101842.78;2072497;28;20451;-61
2022/10/31 01:45:23;;;;;;;13.30;5.80;;;;;;;15.37;100.00;101844.03;2068725;28;20202;-61
2022/10/31 01:46:26;;;;;;;9.77;5.90;;;;;;;15.39;100.00;101838.00;2072655;28;20428;-61
2022/10/31 01:47:39;;;;;;;10.13;6.13;;;;;;;15.45;100.00;101833.47;2072674;28;20185;-62
2022/10/31 01:48:40;;;;;;;11.33;6.03;;;;;;;15.17;100.00;101818.16;2064819;28;20416;-62
2022/10/31 01:49:54;;;;;;;15.73;6.03;;;;;;;15.24;100.00;101836.75;2072700;28;20471;-61
2022/10/31 01:50:55;;;;;;;10.40;5.53;;;;;;;15.25;100.00;101838.31;2064395;28;20953;-60
2022/10/31 01:52:09;;;;;;;9.37;6.40;;;;;;;15.21;100.00;101846.00;2072880;28;20959;-61
2022/10/31 01:53:11;;;;;;;8.37;6.40;;;;;;;14.94;100.00;101809.13;2067708;28;20180;-61
2022/10/31 01:54:15;;;;;;;11.97;6.13;;;;;;;15.20;100.00;101845.22;2064734;28;20917;-61
2022/10/31 01:55:20;;;;;;;8.77;6.10;;;;;;;14.76;100.00;101776.03;2071735;28;20460;-61
2022/10/31 01:56:21;;;;;;;9.23;5.83;;;;;;;15.15;100.00;101825.38;2066332;28;20430;-61
2022/10/31 01:57:23;;;;;;;11.40;6.20;;;;;;;15.26;100.00;101845.50;2069402;28;20456;-61
2022/10/31 01:58:27;;;;;;;8.53;5.50;;;;;;;15.24;100.00;101847.91;2072781;28;20447;-61
2022/10/31 01:59:32;;;;;;;9.97;5.80;;;;;;;15.24;100.00;101845.91;2072728;28;20539;-61
2022/10/31 02:00:32;;;;;;;10.00;5.80;;;;;;;15.27;100.00;101839.44;2070078;28;20460;-62
2022/10/31 02:01:33;;;;;;;11.27;5.80;;;;;;;15.28;100.00;101838.25;2070279;28;20503;-61
2022/10/31 02:02:34;;;;;;;8.50;6.03;;;;;;;15.26;100.00;101849.06;2072798;28;20181;-61
2022/10/31 02:03:35;;;;;;;10.70;6.30;;;;;;;15.28;100.00;101851.41;2072706;28;20269;-62
2022/10/31 02:04:36;;;;;;;9.60;5.70;;;;;;;15.29;100.00;101862.16;2072218;28;20609;-62
2022/10/31 02:05:37;;;;;;;10.07;6.40;;;;;;;15.29;100.00;101853.78;2071490;28;20208;-62
2022/10/31 02:06:53;;;;;;;10.20;6.23;;;;;;;15.28;100.00;101851.41;2073554;28;20447;-61
2022/10/31 02:08:02;;;;;;;9.70;5.67;;;;;;;15.23;100.00;101852.72;2074542;28;20717;-61
2022/10/31 02:09:05;;;;;;;10.67;5.90;;;;;;;15.22;100.00;101862.31;2077079;28;20982;-61
2022/10/31 02:10:05;;;;;;;9.17;5.97;;;;;;;15.14;100.00;101865.69;2077730;28;20425;-61
2022/10/31 02:11:08;;;;;;;10.23;6.43;;;;;;;14.68;100.00;101790.59;2072544;28;20532;-62
2022/10/31 02:12:10;;;;;;;9.43;5.63;;;;;;;15.16;100.00;101866.06;2074343;28;20181;-62
2022/10/31 02:13:12;;;;;;;11.47;6.50;;;;;;;15.14;100.00;101860.91;2074393;28;20480;-62
2022/10/31 02:14:13;;;;;;;9.53;6.30;;;;;;;15.10;100.00;101867.78;2074485;28;20813;-62
2022/10/31 02:15:13;;;;;;;11.00;5.80;;;;;;;15.10;100.00;101874.16;2074039;28;20448;-61
2022/10/31 02:16:14;;;;;;;10.60;5.77;;;;;;;15.09;100.00;101872.59;2074113;28;20181;-62
2022/10/31 02:17:14;;;;;;;9.63;6.47;;;;;;;15.12;100.00;101863.34;2074490;28;20185;-60
2022/10/31 02:18:16;;;;;;;13.53;6.37;;;;;;;14.65;100.00;101797.06;2074194;28;20195;-62
2022/10/31 02:19:34;;;;;;;11.03;6.20;;;;;;;14.76;100.00;101815.09;2074363;28;20183;-61
2022/10/31 02:20:52;;;;;;;13.10;6.70;;;;;;;15.10;100.00;101868.56;2070605;28;21035;-61
2022/10/31 02:22:34;;;;;;;12.50;6.80;;;;;;;15.04;100.00;101867.53;2070962;28;20963;-62
2022/10/31 02:23:53;;;;;;;10.23;6.20;;;;;;;14.99;100.00;101867.25;2066110;28;20437;-62
2022/10/31 02:25:03;;;;;;;14.43;6.97;;;;;;;14.99;100.00;101867.25;2067490;28;20788;-62
2022/10/31 02:26:27;;;;;;;15.80;6.30;;;;;;;14.95;100.00;101863.72;2074056;28;20422;-63
2022/10/31 02:28:09;;;;;;;11.53;5.90;;;;;;;14.97;100.00;101862.09;2070556;28;20538;-62
2022/10/31 02:29:21;;;;;;;17.30;6.67;;;;;;;14.93;100.00;101872.56;2073910;28;20442;-61
2022/10/31 02:30:25;;;;;;;6.47;3.40;;;;;;;14.30;100.00;101773.47;2072877;28;20431;-62
2022/10/31 02:32:09;;;;;;;11.47;6.63;;;;;;;14.90;100.00;101876.19;2074383;28;20449;-61
2022/10/31 02:33:18;;;;;;;13.80;6.73;;;;;;;14.93;100.00;101874.56;2067967;28;20979;-62
2022/10/31 02:34:45;;;;;;;15.83;7.00;;;;;;;14.91;100.00;101871.41;2074267;28;20436;-61
2022/10/31 02:36:21;;;;;;;19.33;7.33;;;;;;;14.88;100.00;101875.84;2071870;28;20511;-61
2022/10/31 02:37:51;;;;;;;17.07;7.27;;;;;;;14.87;100.00;101877.09;2073763;28;20710;-61
2022/10/31 02:39:07;;;;;;;15.53;6.70;;;;;;;14.86;100.00;101878.28;2073617;28;20424;-61
2022/10/31 02:40:10;;;;;;;12.43;6.93;;;;;;;14.87;100.00;101868.72;2070962;28;20435;-62
2022/10/31 02:41:25;;;;;;;23.63;7.37;;;;;;;14.90;100.00;101873.41;2068324;28;20962;-61
2022/10/31 02:42:48;;;;;;;16.17;7.13;;;;;;;14.87;100.00;101873.50;2074344;28;20434;-61
2022/10/31 02:44:36;;;;;;;16.50;7.00;;;;;;;14.84;100.00;101866.78;2071071;28;20881;-61
2022/10/31 02:45:56;;;;;;;13.70;6.87;;;;;;;14.82;100.00;101869.22;2041021;29;20530;-62
2022/10/31 02:47:03;;;;;;;14.37;7.13;;;;;;;14.78;100.00;101865.72;2042306;29;20442;-61
2022/10/31 02:48:10;;;;;;;15.53;6.73;;;;;;;14.77;100.00;101860.56;2048711;29;20546;-62
2022/10/31 02:49:21;;;;;;;15.87;7.07;;;;;;;14.68;100.00;101851.97;2049007;29;20476;-61
2022/10/31 02:50:28;;;;;;;16.87;7.20;;;;;;;14.77;100.00;101869.72;2049098;29;20430;-62
2022/10/31 02:51:29;;;;;;;16.13;6.50;;;;;;;14.75;100.00;101868.59;2070269;28;20458;-61
2022/10/31 02:52:32;;;;;;;14.73;7.07;;;;;;;14.71;100.00;101868.63;2074259;28;20434;-61
2022/10/31 02:53:33;;;;;;;13.37;7.63;;;;;;;14.70;100.00;101866.28;2074296;28;20265;-62
2022/10/31 02:54:34;;;;;;;16.87;7.47;;;;;;;14.70;100.00;101864.28;2073713;28;20523;-61
2022/10/31 02:55:34;;;;;;;18.10;7.80;;;;;;;14.70;100.00;101861.47;2068436;28;20424;-62
2022/10/31 02:56:35;;;;;;;20.47;7.80;;;;;;;14.43;100.00;101821.03;2069935;28;20199;-61
2022/10/31 02:57:38;;;;;;;14.00;7.67;;;;;;;14.72;100.00;101864.66;2073905;28;20192;-61
2022/10/31 02:58:47;;;;;;;15.37;8.13;;;;;;;14.70;100.00;101863.50;2074040;28;20262;-61
2022/10/31 02:59:53;;;;;;;17.20;8.20;;;;;;;14.70;100.00;101864.28;2074163;28;20427;-61
2022/10/31 03:01:11;;;;;;;22.30;8.30;;;;;;;14.72;100.00;101870.22;2073698;28;20983;-61
2022/10/31 03:02:33;;;;;;;21.00;7.90;;;;;;;14.71;100.00;101867.88;2066990;28;20420;-61
2022/10/31 03:03:46;;;;;;;16.27;8.13;;;;;;;14.70;100.00;101869.84;2069029;28;20802;-61
2022/10/31 03:04:58;;;;;;;11.93;6.77;;;;;;;14.69;100.00;101870.28;2073518;28;20434;-62
2022/10/31 03:06:48;;;;;;;14.60;7.07;;;;;;;14.68;100.00;101874.28;2073741;28;20480;-62
2022/10/31 03:08:00;;;;;;;12.77;7.27;;;;;;;14.32;100.00;101834.41;2040992;29;20529;-61
2022/10/31 03:09:20;;;;;;;11.70;7.23;;;;;;;14.61;100.00;101872.44;2066064;28;20976;-62
2022/10/31 03:10:51;;;;;;;13.23;7.00;;;;;;;14.58;100.00;101873.31;2065877;28;20410;-62
2022/10/31 03:12:22;;;;;;;11.53;7.57;;;;;;;14.55;100.00;101873.38;2070789;28;20799;-61
2022/10/31 03:13:44;;;;;;;14.47;7.07;;;;;;;14.50;100.00;101879.47;2066928;28;20942;-62
2022/10/31 03:14:57;;;;;;;14.67;7.07;;;;;;;14.49;100.00;101887.03;2071208;28;20401;-62
2022/10/31 03:16:15;;;;;;;11.70;6.63;;;;;;;14.48;100.00;101895.81;2065725;28;20804;-62
2022/10/31 03:17:33;;;;;;;15.63;7.63;;;;;;;13.94;100.00;101821.97;2065927;28;20944;-61
2022/10/31 03:18:49;;;;;;;21.87;7.73;;;;;;;14.47;100.00;101886.69;2065139;28;20414;-61
2022/10/31 03:19:56;;;;;;;17.37;8.03;;;;;;;14.43;100.00;101876.78;2068219;28;20813;-62
2022/10/31 03:21:11;;;;;;;20.77;7.80;;;;;;;14.45;100.00;101871.59;2073815;28;20433;-61
2022/10/31 03:22:19;;;;;;;16.90;7.20;;;;;;;14.46;100.00;101892.69;2073775;28;20864;-61
2022/10/31 03:23:23;;;;;;;19.90;8.30;;;;;;;14.47;100.00;101892.25;2073756;28;20486;-61
2022/10/31 03:24:27;;;;;;;15.90;7.20;;;;;;;14.46;100.00;101899.06;2073154;28;21123;-61
2022/10/31 03:25:30;;;;;;;13.00;7.13;;;;;;;14.47;100.00;101895.06;2066658;28;20982;-61
2022/10/31 03:26:32;;;;;;;14.30;7.77;;;;;;;14.50;100.00;101894.19;2071256;28;20448;-62
2022/10/31 03:27:35;;;;;;;12.20;7.63;;;;;;;14.53;100.00;101890.53;2073330;28;20451;-61
2022/10/31 03:28:43;;;;;;;17.57;9.07;;;;;;;14.12;100.00;101819.63;2073181;28;20879;-61
2022/10/31 03:29:45;;;;;;;11.80;7.70;;;;;;;14.49;100.00;101898.19;2071225;28;20437;-62
2022/10/31 03:30:48;;;;;;;14.63;7.97;;;;;;;14.43;100.00;101883.16;2073660;28;20417;-62
2022/10/31 03:31:59;;;;;;;16.30;7.67;;;;;;;13.85;100.00;101791.88;2072603;28;20847;-61
2022/10/31 03:33:04;;;;;;;15.17;8.40;;;;;;;14.52;100.00;101891.78;2066089;28;20890;-61
2022/10/31 03:34:07;;;;;;;13.97;8.03;;;;;;;14.56;100.00;101894.47;2073700;28;20435;-61
2022/10/31 03:35:10;;;;;;;13.10;6.63;;;;;;;14.51;100.00;101890.16;2065789;28;20521;-61
2022/10/31 03:36:14;;;;;;;14.00;7.30;;;;;;;14.52;100.00;101890.97;2073424;28;20435;-61
2022/10/31 03:37:18;;;;;;;12.93;6.90;;;;;;;14.53;100.00;101898.13;2073714;28;20441;-62
2022/10/31 03:38:21;;;;;;;15.23;7.70;;;;;;;14.51;100.00;101898.53;2073608;28;20439;-61
2022/10/31 03:39:23;;;;;;;14.10;7.33;;;;;;;14.54;100.00;101894.09;2073140;28;20452;-61
2022/10/31 03:40:26;;;;;;;10.90;6.77;;;;;;;14.51;100.00;101895.75;2073925;28;20462;-62
2022/10/31 03:41:31;;;;;;;15.07;7.17;;;;;;;14.22;100.00;101852.91;2073430;28;20476;-61
2022/10/31 03:42:34;;;;;;;16.33;7.47;;;;;;;14.50;100.00;101899.00;2073542;28;20886;-62
2022/10/31 03:43:41;;;;;;;15.03;7.00;;;;;;;13.87;100.00;101803.38;2073739;28;20835;-62
2022/10/31 03:44:48;;;;;;;17.37;7.20;;;;;;;14.50;100.00;101901.78;2072624;28;20511;-60
2022/10/31 03:45:49;;;;;;;14.57;6.67;;;;;;;14.49;100.00;101905.78;2066483;28;20430;-61
2022/10/31 03:46:50;;;;;;;11.63;6.60;;;;;;;14.51;100.00;101904.13;2073661;28;20457;-61
2022/10/31 03:47:53;;;;;;;11.33;6.67;;;;;;;14.49;100.00;101898.19;2073730;28;20193;-61
2022/10/31 03:48:54;;;;;;;13.13;6.23;;;;;;;14.51;100.00;101894.97;2073661;28;20186;-61
2022/10/31 03:49:55;;;;;;;12.37;6.80;;;;;;;14.13;100.00;101841.50;2068217;28;20477;-62
2022/10/31 03:51:12;;;;;;;14.77;7.43;;;;;;;14.38;100.00;101875.31;2065804;28;20196;-61
2022/10/31 03:52:18;;;;;;;14.87;6.83;;;;;;;14.50;100.00;101894.19;2070472;28;20989;-62
2022/10/31 03:53:44;;;;;;;14.53;6.23;;;;;;;14.47;100.00;101897.03;2069034;28;20435;-61
2022/10/31 03:54:52;;;;;;;10.43;5.93;;;;;;;14.47;100.00;101891.47;2071631;28;20502;-62
2022/10/31 03:55:59;;;;;;;11.70;6.30;;;;;;;14.46;100.00;101898.25;2067166;28;20457;-61
2022/10/31 03:57:14;;;;;;;13.80;6.70;;;;;;;14.41;100.00;101887.59;2071486;28;20435;-61
2022/10/31 03:58:20;;;;;;;17.30;7.43;;;;;;;14.48;100.00;101891.03;2073030;28;20454;-61
2022/10/31 03:59:29;;;;;;;12.77;6.30;;;;;;;14.31;100.00;101869.06;2073690;28;20450;-62
2022/10/31 04:00:33;;;;;;;9.60;6.03;;;;;;;14.44;100.00;101892.34;2073575;28;20906;-61
2022/10/31 04:01:39;;;;;;;12.20;6.37;;;;;;;14.40;100.00;101895.19;2073105;28;20544;-61
2022/10/31 04:02:45;;;;;;;10.43;5.37;;;;;;;14.30;100.00;101870.28;2073383;28;20423;-61
2022/10/31 04:03:46;;;;;;;10.80;6.33;;;;;;;14.37;100.00;101886.88;2069971;28;20445;-62
2022/10/31 04:04:49;;;;;;;13.63;6.50;;;;;;;13.83;100.00;101807.47;2067922;28;20423;-61
2022/10/31 04:05:52;;;;;;;22.20;7.00;;;;;;;14.36;100.00;101897.25;2073275;28;20569;-61
2022/10/31 04:06:55;;;;;;;14.33;6.70;;;;;;;14.32;100.00;101887.38;2073514;28;20933;-61
2022/10/31 04:07:58;;;;;;;13.37;6.87;;;;;;;14.31;100.00;101894.97;2073250;28;20428;-62
2022/10/31 04:09:02;;;;;;;11.93;6.50;;;;;;;14.33;100.00;101895.31;2073560;28;20526;-62
2022/10/31 04:10:07;;;;;;;14.60;5.87;;;;;;;13.95;100.00;101837.47;2068147;28;20517;-61
2022/10/31 04:11:11;;;;;;;13.07;6.07;;;;;;;14.30;100.00;101895.41;2073550;28;20492;-61
2022/10/31 04:12:15;;;;;;;18.43;7.17;;;;;;;14.30;100.00;101898.94;2071283;28;20432;-62
2022/10/31 04:13:23;;;;;;;12.57;6.30;;;;;;;14.30;100.00;101890.59;2067362;28;20892;-62
2022/10/31 04:14:26;;;;;;;21.40;7.80;;;;;;;14.08;100.00;101880.25;2065396;28;20407;-61
2022/10/31 04:15:31;;;;;;;17.13;6.20;;;;;;;13.80;100.00;101819.44;2072373;28;20449;-61
2022/10/31 04:16:31;;;;;;;21.20;7.10;;;;;;;14.28;100.00;101895.81;2073472;28;20428;-61
2022/10/31 04:17:37;;;;;;;23.70;8.07;;;;;;;13.89;100.00;101819.69;2073150;28;20481;-62
2022/10/31 04:18:37;;;;;;;22.73;7.07;;;;;;;14.33;100.00;101891.72;2070738;28;20176;-61
2022/10/31 04:19:38;;;;;;;16.80;5.40;;;;;;;14.31;100.00;101888.59;2066927;28;20476;-61
2022/10/31 04:20:41;;;;;;;24.33;7.47;;;;;;;14.27;100.00;101888.66;2073358;28;20254;-61
2022/10/31 04:21:44;;;;;;;22.20;7.97;;;;;;;14.32;100.00;101899.34;2065348;28;20634;-62
2022/10/31 04:22:44;;;;;;;16.53;7.30;;;;;;;14.34;100.00;101907.28;2065586;28;20435;-61
2022/10/31 04:23:45;;;;;;;30.63;8.37;;;;;;;14.34;100.00;101896.88;2071605;28;20536;-61
2022/10/31 04:24:45;;;;;;;14.80;6.27;;;;;;;14.31;100.00;101897.75;2068602;28;20276;-62
2022/10/31 04:25:46;;;;;;;20.13;6.87;;;;;;;14.31;100.00;101899.75;2071551;28;20702;-62
2022/10/31 04:26:46;;;;;;;16.00;7.20;;;;;;;14.22;100.00;101885.56;2073107;28;20192;-62
2022/10/31 04:27:47;;;;;;;18.30;6.90;;;;;;;14.27;100.00;101894.25;2073052;28;20257;-61
2022/10/31 04:28:47;;;;;;;24.97;8.13;;;;;;;14.34;100.00;101896.13;2073435;28;20238;-61
2022/10/31 04:29:47;;;;;;;15.60;6.40;;;;;;;14.31;100.00;101903.34;2072105;28;20285;-61
2022/10/31 04:30:48;;;;;;;16.07;6.17;;;;;;;14.20;100.00;101890.81;2073378;28;20210;-62
2022/10/31 04:31:48;;;;;;;26.40;7.90;;;;;;;14.36;100.00;101907.63;2073251;28;20195;-62
2022/10/31 04:32:49;;;;;;;14.03;6.43;;;;;;;14.22;100.00;101891.94;2069180;28;20198;-61
2022/10/31 04:33:49;;;;;;;15.20;6.07;;;;;;;14.34;100.00;101905.25;2067234;28;20687;-61
2022/10/31 04:34:50;;;;;;;16.33;6.80;;;;;;;14.33;100.00;101902.88;2073230;28;20172;-62
2022/10/31 04:35:50;;;;;;;23.27;7.57;;;;;;;14.01;100.00;101844.94;2072393;28;20208;-62
2022/10/31 04:36:51;;;;;;;17.63;6.87;;;;;;;14.34;100.00;101899.69;2065267;28;20204;-61
2022/10/31 04:37:51;;;;;;;19.17;6.53;;;;;;;14.36;100.00;101896.47;2072593;28;20196;-61
2022/10/31 04:38:52;;;;;;;14.67;6.27;;;;;;;14.33;100.00;101903.69;2073245;28;20235;-62
2022/10/31 04:39:52;;;;;;;15.77;5.83;;;;;;;14.33;100.00;101902.88;2068473;28;20230;-62
2022/10/31 04:40:52;;;;;;;12.93;5.77;;;;;;;14.33;100.00;101897.31;2065416;28;20218;-61
2022/10/31 04:41:53;;;;;;;10.87;5.90;;;;;;;14.33;100.00;101897.31;2068261;28;20230;-61
2022/10/31 04:42:53;;;;;;;14.13;5.97;;;;;;;14.31;100.00;101894.97;2071704;28;20222;-61
2022/10/31 04:43:54;;;;;;;22.83;7.90;;;;;;;13.77;100.00;101806.34;2070974;28;20650;-61
2022/10/31 04:44:54;;;;;;;12.03;6.10;;;;;;;14.34;100.00;101898.91;2073287;28;20272;-61
2022/10/31 04:45:55;;;;;;;9.17;4.90;;;;;;;14.30;100.00;101892.59;2073278;28;20183;-61
2022/10/31 04:46:55;;;;;;;15.53;6.17;;;;;;;14.31;100.00;101891.38;2072270;28;20213;-61
2022/10/31 04:47:56;;;;;;;14.40;6.93;;;;;;;14.31;100.00;101894.97;2072635;28;20693;-62
2022/10/31 04:48:56;;;;;;;20.60;7.37;;;;;;;14.26;100.00;101901.03;2072917;28;20235;-62
2022/10/31 04:49:56;;;;;;;16.97;7.17;;;;;;;14.32;100.00;101890.97;2073155;28;20262;-61
2022/10/31 04:51:00;;;;;;;16.93;7.57;;;;;;;14.29;100.00;101893.81;2072764;28;20183;-61
2022/10/31 04:52:01;;;;;;;16.00;7.53;;;;;;;14.29;100.00;101891.81;2073032;28;20695;-61
2022/10/31 04:53:01;;;;;;;23.70;7.90;;;;;;;14.27;100.00;101897.03;2073335;28;20886;-61
2022/10/31 04:54:02;;;;;;;18.33;7.10;;;;;;;13.80;100.00;101827.81;2069916;28;20197;-61
2022/10/31 04:55:02;;;;;;;14.07;6.80;;;;;;;14.20;100.00;101899.16;2072555;28;20547;-62
2022/10/31 04:56:03;;;;;;;19.93;7.47;;;;;;;14.19;100.00;101892.78;2072778;28;20255;-62
2022/10/31 04:57:04;;;;;;;25.93;8.63;;;;;;;14.18;100.00;101896.75;2073026;28;20192;-61